Impacts TAF Board INFO
FOR SITUATIONAL AWARENESS. NOT TO BE USED FOR FLIGHT PLANNING PURPOSES.
IDs:

KLGA - New York/La Guardia, NY, US

Issued at 0810 UTC 21 Jan 2018
Updated at 0902 UTC 21 Jan 2018
Potential Impact None Slight Moderate High
Time<<22/10Z 22/11Z 22/12Z 22/13Z 22/14Z 22/15Z 22/16Z 22/17Z 22/18Z 22/19Z 22/20Z 22/21Z 22/22Z
Type PRVL PRVL
VIS >6 >6
CIG 12 12
Cover BKN BKN
FltCat MVFR MVFR
WX -- --
WDir VRB VRB
WSpd 3 3
WGst -- --

Raw TAF
KLGA 210810Z 2108/2212 29005KT P6SM SCT250
  FM211200 32006KT P6SM FEW250
  FM212300 26005KT P6SM BKN040
  FM220300 23005KT P6SM BKN025
  FM220700 VRB03KT P6SM BKN012


METAR Board
Radar Display
Forecast Discussion

FOR SITUATIONAL AWARENESS. NOT TO BE USED FOR FLIGHT PLANNING PURPOSES.